sensor_id;sensor_type;location;lat;lon;timestamp;P1;durP1;ratioP1;P2;durP2;ratioP2
72275;SDS011;61204;49.980;8.358;2022-11-14T00:00:40;12.18;;;8.48;;
72275;SDS011;61204;49.980;8.358;2022-11-14T00:03:09;11.68;;;9.05;;
72275;SDS011;61204;49.980;8.358;2022-11-14T00:05:42;10.57;;;8.05;;
72275;SDS011;61204;49.980;8.358;2022-11-14T00:08:13;10.43;;;7.70;;
72275;SDS011;61204;49.980;8.358;2022-11-14T00:10:47;12.50;;;8.73;;
72275;SDS011;61204;49.980;8.358;2022-11-14T00:13:16;11.45;;;7.78;;
72275;SDS011;61204;49.980;8.358;2022-11-14T00:15:46;12.55;;;8.23;;
72275;SDS011;61204;49.980;8.358;2022-11-14T00:18:15;9.63;;;8.07;;
72275;SDS011;61204;49.980;8.358;2022-11-14T00:20:42;11.63;;;8.75;;
72275;SDS011;61204;49.980;8.358;2022-11-14T00:23:07;12.77;;;9.43;;
72275;SDS011;61204;49.980;8.358;2022-11-14T00:25:33;11.63;;;9.02;;
72275;SDS011;61204;49.980;8.358;2022-11-14T00:27:59;10.98;;;9.43;;
72275;SDS011;61204;49.980;8.358;2022-11-14T00:30:24;10.73;;;8.52;;
72275;SDS011;61204;49.980;8.358;2022-11-14T00:32:51;13.10;;;9.88;;
72275;SDS011;61204;49.980;8.358;2022-11-14T00:35:17;13.40;;;10.65;;
72275;SDS011;61204;49.980;8.358;2022-11-14T00:37:42;12.52;;;10.20;;
72275;SDS011;61204;49.980;8.358;2022-11-14T00:40:08;14.77;;;10.60;;
72275;SDS011;61204;49.980;8.358;2022-11-14T00:42:34;14.93;;;11.75;;
72275;SDS011;61204;49.980;8.358;2022-11-14T00:44:59;12.63;;;10.20;;
72275;SDS011;61204;49.980;8.358;2022-11-14T00:47:25;14.45;;;10.93;;
72275;SDS011;61204;49.980;8.358;2022-11-14T00:49:50;18.23;;;12.63;;
72275;SDS011;61204;49.980;8.358;2022-11-14T00:52:16;22.10;;;15.10;;
72275;SDS011;61204;49.980;8.358;2022-11-14T00:54:41;20.75;;;15.77;;
72275;SDS011;61204;49.980;8.358;2022-11-14T00:57:07;70.00;;;19.10;;
72275;SDS011;61204;49.980;8.358;2022-11-14T00:59:32;193.13;;;29.17;;
72275;SDS011;61204;49.980;8.358;2022-11-14T01:01:58;109.53;;;21.30;;
72275;SDS011;61204;49.980;8.358;2022-11-14T01:04:24;108.35;;;23.63;;
72275;SDS011;61204;49.980;8.358;2022-11-14T01:06:49;132.32;;;25.95;;
72275;SDS011;61204;49.980;8.358;2022-11-14T01:09:15;127.15;;;27.15;;
72275;SDS011;61204;49.980;8.358;2022-11-14T01:11:40;167.13;;;28.08;;
72275;SDS011;61204;49.980;8.358;2022-11-14T01:14:06;159.95;;;28.85;;
72275;SDS011;61204;49.980;8.358;2022-11-14T01:16:33;142.43;;;27.85;;
72275;SDS011;61204;49.980;8.358;2022-11-14T01:18:59;245.52;;;34.33;;
72275;SDS011;61204;49.980;8.358;2022-11-14T01:21:27;226.40;;;33.50;;
72275;SDS011;61204;49.980;8.358;2022-11-14T01:23:52;446.75;;;52.55;;
72275;SDS011;61204;49.980;8.358;2022-11-14T01:26:18;323.23;;;42.13;;
72275;SDS011;61204;49.980;8.358;2022-11-14T01:28:44;415.00;;;44.47;;
72275;SDS011;61204;49.980;8.358;2022-11-14T01:31:10;263.98;;;37.60;;
72275;SDS011;61204;49.980;8.358;2022-11-14T01:33:50;263.88;;;34.63;;
72275;SDS011;61204;49.980;8.358;2022-11-14T01:36:18;324.58;;;40.30;;
72275;SDS011;61204;49.980;8.358;2022-11-14T01:38:45;400.23;;;45.42;;
72275;SDS011;61204;49.980;8.358;2022-11-14T01:41:15;367.50;;;44.53;;
72275;SDS011;61204;49.980;8.358;2022-11-14T01:43:41;396.00;;;46.97;;
72275;SDS011;61204;49.980;8.358;2022-11-14T01:46:15;377.73;;;47.97;;
72275;SDS011;61204;49.980;8.358;2022-11-14T01:49:21;420.23;;;46.35;;
72275;SDS011;61204;49.980;8.358;2022-11-14T01:52:02;420.20;;;49.80;;
72275;SDS011;61204;49.980;8.358;2022-11-14T01:54:43;281.23;;;35.08;;
72275;SDS011;61204;49.980;8.358;2022-11-14T01:57:16;447.00;;;54.92;;
72275;SDS011;61204;49.980;8.358;2022-11-14T01:59:51;345.38;;;43.58;;
72275;SDS011;61204;49.980;8.358;2022-11-14T02:02:24;325.73;;;44.17;;
72275;SDS011;61204;49.980;8.358;2022-11-14T02:04:56;479.67;;;56.72;;
72275;SDS011;61204;49.980;8.358;2022-11-14T02:07:34;400.83;;;48.10;;
72275;SDS011;61204;49.980;8.358;2022-11-14T02:10:10;320.80;;;41.17;;
72275;SDS011;61204;49.980;8.358;2022-11-14T02:12:44;237.80;;;38.20;;
72275;SDS011;61204;49.980;8.358;2022-11-14T02:15:11;354.23;;;46.03;;
72275;SDS011;61204;49.980;8.358;2022-11-14T02:17:39;345.13;;;42.80;;
72275;SDS011;61204;49.980;8.358;2022-11-14T02:22:36;414.17;;;47.65;;
72275;SDS011;61204;49.980;8.358;2022-11-14T02:25:05;332.90;;;44.17;;
72275;SDS011;61204;49.980;8.358;2022-11-14T02:27:33;436.73;;;55.80;;
72275;SDS011;61204;49.980;8.358;2022-11-14T02:30:04;366.10;;;46.53;;
72275;SDS011;61204;49.980;8.358;2022-11-14T02:32:44;336.05;;;43.95;;
72275;SDS011;61204;49.980;8.358;2022-11-14T02:35:10;261.05;;;37.20;;
72275;SDS011;61204;49.980;8.358;2022-11-14T02:37:36;209.02;;;33.55;;
72275;SDS011;61204;49.980;8.358;2022-11-14T02:40:04;348.05;;;42.40;;
72275;SDS011;61204;49.980;8.358;2022-11-14T02:42:31;175.20;;;32.30;;
72275;SDS011;61204;49.980;8.358;2022-11-14T02:44:56;326.25;;;40.15;;
72275;SDS011;61204;49.980;8.358;2022-11-14T02:47:22;165.90;;;29.77;;
72275;SDS011;61204;49.980;8.358;2022-11-14T02:49:50;145.80;;;28.63;;
72275;SDS011;61204;49.980;8.358;2022-11-14T02:52:16;262.15;;;36.53;;
72275;SDS011;61204;49.980;8.358;2022-11-14T02:54:42;135.50;;;28.17;;
72275;SDS011;61204;49.980;8.358;2022-11-14T02:57:07;171.38;;;27.85;;
72275;SDS011;61204;49.980;8.358;2022-11-14T02:59:33;167.60;;;30.58;;
72275;SDS011;61204;49.980;8.358;2022-11-14T03:01:59;145.50;;;26.67;;
72275;SDS011;61204;49.980;8.358;2022-11-14T03:04:25;148.48;;;31.15;;
72275;SDS011;61204;49.980;8.358;2022-11-14T03:06:50;245.25;;;35.42;;
72275;SDS011;61204;49.980;8.358;2022-11-14T03:09:16;274.33;;;36.65;;
72275;SDS011;61204;49.980;8.358;2022-11-14T03:11:42;115.45;;;25.00;;
72275;SDS011;61204;49.980;8.358;2022-11-14T03:14:08;201.68;;;32.28;;
72275;SDS011;61204;49.980;8.358;2022-11-14T03:16:33;111.43;;;25.27;;
72275;SDS011;61204;49.980;8.358;2022-11-14T03:18:59;156.27;;;28.77;;
72275;SDS011;61204;49.980;8.358;2022-11-14T03:21:26;157.93;;;27.77;;
72275;SDS011;61204;49.980;8.358;2022-11-14T03:23:52;189.43;;;29.67;;
72275;SDS011;61204;49.980;8.358;2022-11-14T03:26:18;178.52;;;26.88;;
72275;SDS011;61204;49.980;8.358;2022-11-14T03:28:43;110.05;;;24.10;;
72275;SDS011;61204;49.980;8.358;2022-11-14T03:31:10;167.18;;;29.65;;
72275;SDS011;61204;49.980;8.358;2022-11-14T03:33:38;96.15;;;22.95;;
72275;SDS011;61204;49.980;8.358;2022-11-14T03:36:04;86.22;;;22.67;;
72275;SDS011;61204;49.980;8.358;2022-11-14T03:38:31;81.97;;;22.20;;
72275;SDS011;61204;49.980;8.358;2022-11-14T03:40:58;70.38;;;23.42;;
72275;SDS011;61204;49.980;8.358;2022-11-14T03:43:24;53.13;;;20.35;;
72275;SDS011;61204;49.980;8.358;2022-11-14T03:45:56;49.10;;;18.67;;
72275;SDS011;61204;49.980;8.358;2022-11-14T03:48:28;53.83;;;20.02;;
72275;SDS011;61204;49.980;8.358;2022-11-14T03:50:54;51.03;;;19.02;;
72275;SDS011;61204;49.980;8.358;2022-11-14T03:53:21;46.35;;;20.10;;
72275;SDS011;61204;49.980;8.358;2022-11-14T03:55:48;45.55;;;19.83;;
72275;SDS011;61204;49.980;8.358;2022-11-14T03:58:14;59.58;;;23.27;;
72275;SDS011;61204;49.980;8.358;2022-11-14T04:00:39;56.88;;;21.10;;
72275;SDS011;61204;49.980;8.358;2022-11-14T04:03:05;50.30;;;20.92;;
72275;SDS011;61204;49.980;8.358;2022-11-14T04:05:30;45.13;;;21.10;;
72275;SDS011;61204;49.980;8.358;2022-11-14T04:07:56;68.80;;;22.48;;
72275;SDS011;61204;49.980;8.358;2022-11-14T04:10:22;59.30;;;21.33;;
72275;SDS011;61204;49.980;8.358;2022-11-14T04:12:48;58.90;;;22.95;;
72275;SDS011;61204;49.980;8.358;2022-11-14T04:15:16;56.78;;;22.55;;
72275;SDS011;61204;49.980;8.358;2022-11-14T04:17:43;52.80;;;22.55;;
72275;SDS011;61204;49.980;8.358;2022-11-14T04:20:10;41.05;;;20.77;;
72275;SDS011;61204;49.980;8.358;2022-11-14T04:22:38;50.35;;;21.38;;
72275;SDS011;61204;49.980;8.358;2022-11-14T04:25:04;41.75;;;20.33;;
72275;SDS011;61204;49.980;8.358;2022-11-14T04:27:32;47.22;;;20.98;;
72275;SDS011;61204;49.980;8.358;2022-11-14T04:29:59;62.90;;;23.85;;
72275;SDS011;61204;49.980;8.358;2022-11-14T04:32:24;70.40;;;24.17;;
72275;SDS011;61204;49.980;8.358;2022-11-14T04:34:50;56.47;;;22.20;;
72275;SDS011;61204;49.980;8.358;2022-11-14T04:37:15;67.25;;;24.67;;
72275;SDS011;61204;49.980;8.358;2022-11-14T04:39:41;56.58;;;24.10;;
72275;SDS011;61204;49.980;8.358;2022-11-14T04:42:07;55.97;;;23.65;;
72275;SDS011;61204;49.980;8.358;2022-11-14T04:44:32;50.00;;;22.23;;
72275;SDS011;61204;49.980;8.358;2022-11-14T04:46:58;45.58;;;20.75;;
72275;SDS011;61204;49.980;8.358;2022-11-14T04:49:23;47.28;;;22.15;;
72275;SDS011;61204;49.980;8.358;2022-11-14T04:51:49;46.05;;;20.33;;
72275;SDS011;61204;49.980;8.358;2022-11-14T04:54:14;41.83;;;21.48;;
72275;SDS011;61204;49.980;8.358;2022-11-14T04:56:40;44.15;;;20.35;;
72275;SDS011;61204;49.980;8.358;2022-11-14T04:59:06;44.88;;;19.58;;
72275;SDS011;61204;49.980;8.358;2022-11-14T05:01:32;44.35;;;20.05;;
72275;SDS011;61204;49.980;8.358;2022-11-14T05:03:57;35.08;;;17.92;;
72275;SDS011;61204;49.980;8.358;2022-11-14T05:06:23;44.97;;;19.38;;
72275;SDS011;61204;49.980;8.358;2022-11-14T05:08:48;39.85;;;18.70;;
72275;SDS011;61204;49.980;8.358;2022-11-14T05:11:14;33.42;;;18.45;;
72275;SDS011;61204;49.980;8.358;2022-11-14T05:13:43;35.13;;;17.90;;
72275;SDS011;61204;49.980;8.358;2022-11-14T05:16:10;33.60;;;18.33;;
72275;SDS011;61204;49.980;8.358;2022-11-14T05:18:36;31.65;;;17.65;;
72275;SDS011;61204;49.980;8.358;2022-11-14T05:21:03;27.70;;;16.85;;
72275;SDS011;61204;49.980;8.358;2022-11-14T05:23:30;31.40;;;18.15;;
72275;SDS011;61204;49.980;8.358;2022-11-14T05:26:00;28.85;;;17.42;;
72275;SDS011;61204;49.980;8.358;2022-11-14T05:28:30;32.38;;;17.42;;
72275;SDS011;61204;49.980;8.358;2022-11-14T05:31:05;32.45;;;18.13;;
72275;SDS011;61204;49.980;8.358;2022-11-14T05:33:37;33.08;;;17.45;;
72275;SDS011;61204;49.980;8.358;2022-11-14T05:38:30;28.00;;;17.92;;
72275;SDS011;61204;49.980;8.358;2022-11-14T05:40:57;27.85;;;17.00;;
72275;SDS011;61204;49.980;8.358;2022-11-14T05:43:23;25.50;;;16.88;;
72275;SDS011;61204;49.980;8.358;2022-11-14T05:45:57;27.30;;;17.25;;
72275;SDS011;61204;49.980;8.358;2022-11-14T05:48:29;24.15;;;16.13;;
72275;SDS011;61204;49.980;8.358;2022-11-14T05:50:56;26.23;;;17.08;;
72275;SDS011;61204;49.980;8.358;2022-11-14T05:53:24;27.55;;;17.27;;
72275;SDS011;61204;49.980;8.358;2022-11-14T05:55:53;26.02;;;16.33;;
72275;SDS011;61204;49.980;8.358;2022-11-14T05:58:19;24.92;;;16.17;;
72275;SDS011;61204;49.980;8.358;2022-11-14T06:00:46;25.63;;;16.48;;
72275;SDS011;61204;49.980;8.358;2022-11-14T06:03:12;27.38;;;17.08;;
72275;SDS011;61204;49.980;8.358;2022-11-14T06:05:39;29.42;;;15.32;;
72275;SDS011;61204;49.980;8.358;2022-11-14T06:08:05;25.95;;;15.50;;
72275;SDS011;61204;49.980;8.358;2022-11-14T06:10:33;25.35;;;16.17;;
72275;SDS011;61204;49.980;8.358;2022-11-14T06:12:59;22.98;;;15.35;;
72275;SDS011;61204;49.980;8.358;2022-11-14T06:15:25;23.40;;;15.23;;
72275;SDS011;61204;49.980;8.358;2022-11-14T06:17:52;23.08;;;14.85;;
72275;SDS011;61204;49.980;8.358;2022-11-14T06:20:19;22.75;;;15.23;;
72275;SDS011;61204;49.980;8.358;2022-11-14T06:22:45;21.73;;;15.70;;
72275;SDS011;61204;49.980;8.358;2022-11-14T06:25:11;23.42;;;15.38;;
72275;SDS011;61204;49.980;8.358;2022-11-14T06:27:37;22.92;;;15.02;;
72275;SDS011;61204;49.980;8.358;2022-11-14T06:30:02;22.15;;;14.68;;
72275;SDS011;61204;49.980;8.358;2022-11-14T06:32:29;21.20;;;15.00;;
72275;SDS011;61204;49.980;8.358;2022-11-14T06:34:54;20.52;;;15.05;;
72275;SDS011;61204;49.980;8.358;2022-11-14T06:37:20;17.92;;;12.82;;
72275;SDS011;61204;49.980;8.358;2022-11-14T06:39:46;18.85;;;13.20;;
72275;SDS011;61204;49.980;8.358;2022-11-14T06:42:12;22.48;;;13.95;;
72275;SDS011;61204;49.980;8.358;2022-11-14T06:44:40;20.52;;;15.00;;
72275;SDS011;61204;49.980;8.358;2022-11-14T06:47:06;20.15;;;13.43;;
72275;SDS011;61204;49.980;8.358;2022-11-14T06:49:31;19.63;;;14.32;;
72275;SDS011;61204;49.980;8.358;2022-11-14T06:51:57;20.83;;;14.68;;
72275;SDS011;61204;49.980;8.358;2022-11-14T06:54:22;21.60;;;13.65;;
72275;SDS011;61204;49.980;8.358;2022-11-14T06:56:48;21.90;;;14.35;;
72275;SDS011;61204;49.980;8.358;2022-11-14T06:59:13;20.75;;;13.60;;
72275;SDS011;61204;49.980;8.358;2022-11-14T07:01:39;21.52;;;13.77;;
72275;SDS011;61204;49.980;8.358;2022-11-14T07:04:04;24.42;;;16.83;;
72275;SDS011;61204;49.980;8.358;2022-11-14T07:06:30;22.70;;;15.73;;
72275;SDS011;61204;49.980;8.358;2022-11-14T07:08:56;24.65;;;17.00;;
72275;SDS011;61204;49.980;8.358;2022-11-14T07:11:23;27.67;;;17.05;;
72275;SDS011;61204;49.980;8.358;2022-11-14T07:14:00;21.92;;;14.50;;
72275;SDS011;61204;49.980;8.358;2022-11-14T07:16:29;19.40;;;14.02;;
72275;SDS011;61204;49.980;8.358;2022-11-14T07:19:03;21.80;;;15.20;;
72275;SDS011;61204;49.980;8.358;2022-11-14T07:21:35;29.55;;;16.20;;
72275;SDS011;61204;49.980;8.358;2022-11-14T07:24:01;21.48;;;14.88;;
72275;SDS011;61204;49.980;8.358;2022-11-14T07:26:27;20.52;;;14.75;;
72275;SDS011;61204;49.980;8.358;2022-11-14T07:28:52;22.42;;;14.82;;
72275;SDS011;61204;49.980;8.358;2022-11-14T07:31:18;22.75;;;15.65;;
72275;SDS011;61204;49.980;8.358;2022-11-14T07:33:45;22.90;;;16.63;;
72275;SDS011;61204;49.980;8.358;2022-11-14T07:36:12;22.23;;;14.95;;
72275;SDS011;61204;49.980;8.358;2022-11-14T07:38:40;21.13;;;14.27;;
72275;SDS011;61204;49.980;8.358;2022-11-14T07:41:07;19.98;;;14.00;;
72275;SDS011;61204;49.980;8.358;2022-11-14T07:43:38;22.15;;;14.93;;
72275;SDS011;61204;49.980;8.358;2022-11-14T07:46:05;24.50;;;15.73;;
72275;SDS011;61204;49.980;8.358;2022-11-14T07:48:37;18.80;;;15.25;;
72275;SDS011;61204;49.980;8.358;2022-11-14T07:51:09;26.70;;;17.67;;
72275;SDS011;61204;49.980;8.358;2022-11-14T07:53:43;28.15;;;17.45;;
72275;SDS011;61204;49.980;8.358;2022-11-14T07:56:09;24.33;;;16.00;;
72275;SDS011;61204;49.980;8.358;2022-11-14T07:58:39;23.85;;;15.07;;
72275;SDS011;61204;49.980;8.358;2022-11-14T08:01:06;23.80;;;15.93;;
72275;SDS011;61204;49.980;8.358;2022-11-14T08:03:35;26.10;;;16.58;;
72275;SDS011;61204;49.980;8.358;2022-11-14T08:06:05;27.17;;;16.02;;
72275;SDS011;61204;49.980;8.358;2022-11-14T08:08:35;28.92;;;17.40;;
72275;SDS011;61204;49.980;8.358;2022-11-14T08:11:02;31.00;;;17.00;;
72275;SDS011;61204;49.980;8.358;2022-11-14T08:13:28;29.15;;;16.50;;
72275;SDS011;61204;49.980;8.358;2022-11-14T08:15:55;25.25;;;17.08;;
72275;SDS011;61204;49.980;8.358;2022-11-14T08:18:21;24.33;;;16.20;;
72275;SDS011;61204;49.980;8.358;2022-11-14T08:20:48;25.42;;;16.08;;
72275;SDS011;61204;49.980;8.358;2022-11-14T08:23:13;26.23;;;17.48;;
72275;SDS011;61204;49.980;8.358;2022-11-14T08:25:39;27.70;;;17.10;;
72275;SDS011;61204;49.980;8.358;2022-11-14T08:28:06;27.17;;;17.42;;
72275;SDS011;61204;49.980;8.358;2022-11-14T08:30:32;26.60;;;19.67;;
72275;SDS011;61204;49.980;8.358;2022-11-14T08:33:01;29.75;;;18.05;;
72275;SDS011;61204;49.980;8.358;2022-11-14T08:35:29;29.70;;;18.13;;
72275;SDS011;61204;49.980;8.358;2022-11-14T08:37:59;28.52;;;19.27;;
72275;SDS011;61204;49.980;8.358;2022-11-14T08:40:26;32.08;;;18.42;;
72275;SDS011;61204;49.980;8.358;2022-11-14T08:42:57;30.83;;;19.08;;
72275;SDS011;61204;49.980;8.358;2022-11-14T08:45:25;28.10;;;17.13;;
72275;SDS011;61204;49.980;8.358;2022-11-14T08:47:51;29.33;;;18.77;;
72275;SDS011;61204;49.980;8.358;2022-11-14T08:50:17;30.42;;;17.40;;
72275;SDS011;61204;49.980;8.358;2022-11-14T08:52:47;27.67;;;18.40;;
72275;SDS011;61204;49.980;8.358;2022-11-14T08:55:16;32.60;;;18.60;;
72275;SDS011;61204;49.980;8.358;2022-11-14T08:57:43;29.95;;;19.60;;
72275;SDS011;61204;49.980;8.358;2022-11-14T09:00:08;26.25;;;18.00;;
72275;SDS011;61204;49.980;8.358;2022-11-14T09:02:35;27.20;;;17.98;;
72275;SDS011;61204;49.980;8.358;2022-11-14T09:05:01;30.33;;;20.15;;
72275;SDS011;61204;49.980;8.358;2022-11-14T09:07:27;30.40;;;19.92;;
72275;SDS011;61204;49.980;8.358;2022-11-14T09:09:53;27.33;;;18.98;;
72275;SDS011;61204;49.980;8.358;2022-11-14T09:12:18;28.90;;;19.65;;
72275;SDS011;61204;49.980;8.358;2022-11-14T09:14:44;29.92;;;20.20;;
72275;SDS011;61204;49.980;8.358;2022-11-14T09:17:09;31.27;;;18.60;;
72275;SDS011;61204;49.980;8.358;2022-11-14T09:19:35;30.67;;;19.30;;
72275;SDS011;61204;49.980;8.358;2022-11-14T09:22:00;27.85;;;18.35;;
72275;SDS011;61204;49.980;8.358;2022-11-14T09:24:27;28.83;;;17.88;;
72275;SDS011;61204;49.980;8.358;2022-11-14T09:26:52;29.42;;;19.30;;
72275;SDS011;61204;49.980;8.358;2022-11-14T09:29:18;28.42;;;17.42;;
72275;SDS011;61204;49.980;8.358;2022-11-14T09:31:43;26.40;;;17.65;;
72275;SDS011;61204;49.980;8.358;2022-11-14T09:34:09;28.25;;;18.55;;
72275;SDS011;61204;49.980;8.358;2022-11-14T09:36:35;27.65;;;18.48;;
72275;SDS011;61204;49.980;8.358;2022-11-14T09:39:00;26.55;;;18.70;;
72275;SDS011;61204;49.980;8.358;2022-11-14T09:41:36;26.50;;;18.58;;
72275;SDS011;61204;49.980;8.358;2022-11-14T09:44:53;28.33;;;17.70;;
72275;SDS011;61204;49.980;8.358;2022-11-14T09:47:28;28.40;;;17.98;;
72275;SDS011;61204;49.980;8.358;2022-11-14T09:50:21;25.00;;;16.75;;
72275;SDS011;61204;49.980;8.358;2022-11-14T09:52:57;24.35;;;16.63;;
72275;SDS011;61204;49.980;8.358;2022-11-14T09:55:38;23.13;;;15.15;;
72275;SDS011;61204;49.980;8.358;2022-11-14T09:58:04;27.58;;;16.73;;
72275;SDS011;61204;49.980;8.358;2022-11-14T10:01:02;23.90;;;15.80;;
72275;SDS011;61204;49.980;8.358;2022-11-14T10:06:58;27.02;;;15.93;;
72275;SDS011;61204;49.980;8.358;2022-11-14T10:13:16;20.60;;;14.30;;
72275;SDS011;61204;49.980;8.358;2022-11-14T10:25:44;16.80;;;12.98;;
72275;SDS011;61204;49.980;8.358;2022-11-14T10:31:21;17.25;;;12.30;;
72275;SDS011;61204;49.980;8.358;2022-11-14T10:34:17;17.73;;;12.75;;
72275;SDS011;61204;49.980;8.358;2022-11-14T10:37:02;18.20;;;14.70;;
72275;SDS011;61204;49.980;8.358;2022-11-14T10:39:50;21.52;;;14.43;;
72275;SDS011;61204;49.980;8.358;2022-11-14T10:42:27;20.02;;;13.23;;
72275;SDS011;61204;49.980;8.358;2022-11-14T10:47:45;21.80;;;13.30;;
72275;SDS011;61204;49.980;8.358;2022-11-14T10:50:26;16.35;;;12.57;;
72275;SDS011;61204;49.980;8.358;2022-11-14T10:53:21;18.73;;;12.60;;
72275;SDS011;61204;49.980;8.358;2022-11-14T10:56:11;16.73;;;12.23;;
72275;SDS011;61204;49.980;8.358;2022-11-14T10:58:38;17.27;;;13.20;;
72275;SDS011;61204;49.980;8.358;2022-11-14T11:09:32;13.95;;;10.88;;
72275;SDS011;61204;49.980;8.358;2022-11-14T11:12:42;14.10;;;10.10;;
72275;SDS011;61204;49.980;8.358;2022-11-14T11:15:20;17.05;;;11.93;;
72275;SDS011;61204;49.980;8.358;2022-11-14T11:21:06;16.58;;;11.20;;
72275;SDS011;61204;49.980;8.358;2022-11-14T11:23:54;14.98;;;11.20;;
72275;SDS011;61204;49.980;8.358;2022-11-14T11:26:23;14.20;;;11.35;;
72275;SDS011;61204;49.980;8.358;2022-11-14T11:29:00;13.85;;;10.55;;
72275;SDS011;61204;49.980;8.358;2022-11-14T11:34:17;12.63;;;9.93;;
72275;SDS011;61204;49.980;8.358;2022-11-14T11:36:57;12.65;;;10.05;;
72275;SDS011;61204;49.980;8.358;2022-11-14T11:39:44;11.93;;;10.10;;
72275;SDS011;61204;49.980;8.358;2022-11-14T11:45:28;12.38;;;9.23;;
72275;SDS011;61204;49.980;8.358;2022-11-14T11:48:00;11.95;;;9.00;;
72275;SDS011;61204;49.980;8.358;2022-11-14T11:55:59;10.48;;;8.07;;
72275;SDS011;61204;49.980;8.358;2022-11-14T11:58:50;9.30;;;7.20;;
72275;SDS011;61204;49.980;8.358;2022-11-14T12:01:27;9.88;;;7.95;;
72275;SDS011;61204;49.980;8.358;2022-11-14T12:03:53;11.52;;;7.68;;
72275;SDS011;61204;49.980;8.358;2022-11-14T12:06:22;9.38;;;7.90;;
72275;SDS011;61204;49.980;8.358;2022-11-14T12:11:54;11.27;;;7.88;;
72275;SDS011;61204;49.980;8.358;2022-11-14T12:30:06;9.50;;;7.38;;
72275;SDS011;61204;49.980;8.358;2022-11-14T12:35:25;10.05;;;8.18;;
72275;SDS011;61204;49.980;8.358;2022-11-14T12:37:58;10.07;;;7.60;;
72275;SDS011;61204;49.980;8.358;2022-11-14T12:40:30;9.95;;;7.60;;
72275;SDS011;61204;49.980;8.358;2022-11-14T12:43:03;10.20;;;7.60;;
72275;SDS011;61204;49.980;8.358;2022-11-14T12:46:07;10.40;;;8.48;;
72275;SDS011;61204;49.980;8.358;2022-11-14T12:53:49;11.43;;;8.02;;
72275;SDS011;61204;49.980;8.358;2022-11-14T12:59:11;13.18;;;7.50;;
72275;SDS011;61204;49.980;8.358;2022-11-14T13:05:21;9.45;;;7.60;;
72275;SDS011;61204;49.980;8.358;2022-11-14T13:14:21;10.60;;;7.68;;
72275;SDS011;61204;49.980;8.358;2022-11-14T13:17:25;10.18;;;7.68;;
72275;SDS011;61204;49.980;8.358;2022-11-14T13:20:27;8.80;;;7.63;;
72275;SDS011;61204;49.980;8.358;2022-11-14T13:33:46;10.25;;;7.60;;
72275;SDS011;61204;49.980;8.358;2022-11-14T13:39:27;11.80;;;7.25;;
72275;SDS011;61204;49.980;8.358;2022-11-14T13:42:31;14.32;;;8.13;;
72275;SDS011;61204;49.980;8.358;2022-11-14T13:51:50;13.07;;;8.95;;
72275;SDS011;61204;49.980;8.358;2022-11-14T13:54:18;11.20;;;7.65;;
72275;SDS011;61204;49.980;8.358;2022-11-14T14:06:05;11.02;;;7.78;;
72275;SDS011;61204;49.980;8.358;2022-11-14T14:11:53;12.18;;;8.13;;
72275;SDS011;61204;49.980;8.358;2022-11-14T14:18:10;8.90;;;7.13;;
72275;SDS011;61204;49.980;8.358;2022-11-14T14:20:50;9.98;;;7.35;;
72275;SDS011;61204;49.980;8.358;2022-11-14T14:24:16;10.63;;;7.90;;
72275;SDS011;61204;49.980;8.358;2022-11-14T14:30:15;9.57;;;7.80;;
72275;SDS011;61204;49.980;8.358;2022-11-14T14:33:01;13.27;;;8.02;;
72275;SDS011;61204;49.980;8.358;2022-11-14T14:35:33;11.00;;;8.82;;
72275;SDS011;61204;49.980;8.358;2022-11-14T14:38:08;12.68;;;8.18;;
72275;SDS011;61204;49.980;8.358;2022-11-14T14:40:47;9.80;;;7.85;;
72275;SDS011;61204;49.980;8.358;2022-11-14T14:43:20;10.45;;;8.25;;
72275;SDS011;61204;49.980;8.358;2022-11-14T14:45:57;14.52;;;8.27;;
72275;SDS011;61204;49.980;8.358;2022-11-14T14:48:25;11.95;;;8.55;;
72275;SDS011;61204;49.980;8.358;2022-11-14T14:50:57;11.30;;;8.65;;
72275;SDS011;61204;49.980;8.358;2022-11-14T14:53:33;11.98;;;8.43;;
72275;SDS011;61204;49.980;8.358;2022-11-14T14:56:01;10.20;;;8.50;;
72275;SDS011;61204;49.980;8.358;2022-11-14T14:58:41;11.98;;;8.70;;
72275;SDS011;61204;49.980;8.358;2022-11-14T15:01:13;11.07;;;8.60;;
72275;SDS011;61204;49.980;8.358;2022-11-14T15:03:45;11.40;;;8.88;;
72275;SDS011;61204;49.980;8.358;2022-11-14T15:09:02;11.23;;;7.97;;
72275;SDS011;61204;49.980;8.358;2022-11-14T15:11:45;10.85;;;8.57;;
72275;SDS011;61204;49.980;8.358;2022-11-14T15:14:23;15.27;;;9.40;;
72275;SDS011;61204;49.980;8.358;2022-11-14T15:16:56;11.30;;;8.23;;
72275;SDS011;61204;49.980;8.358;2022-11-14T15:19:24;13.35;;;9.48;;
72275;SDS011;61204;49.980;8.358;2022-11-14T15:22:03;13.23;;;9.18;;
72275;SDS011;61204;49.980;8.358;2022-11-14T15:27:46;11.38;;;8.43;;
72275;SDS011;61204;49.980;8.358;2022-11-14T15:30:20;15.10;;;8.50;;
72275;SDS011;61204;49.980;8.358;2022-11-14T15:32:55;12.35;;;8.25;;
72275;SDS011;61204;49.980;8.358;2022-11-14T15:35:26;13.80;;;8.85;;
72275;SDS011;61204;49.980;8.358;2022-11-14T15:38:01;12.32;;;9.25;;
72275;SDS011;61204;49.980;8.358;2022-11-14T15:40:35;12.30;;;9.02;;
72275;SDS011;61204;49.980;8.358;2022-11-14T15:46:35;11.45;;;8.25;;
72275;SDS011;61204;49.980;8.358;2022-11-14T15:49:06;10.55;;;8.32;;
72275;SDS011;61204;49.980;8.358;2022-11-14T15:56:59;12.75;;;8.13;;
72275;SDS011;61204;49.980;8.358;2022-11-14T15:59:39;12.70;;;8.40;;
72275;SDS011;61204;49.980;8.358;2022-11-14T16:02:21;14.52;;;8.07;;
72275;SDS011;61204;49.980;8.358;2022-11-14T16:04:56;12.32;;;8.35;;
72275;SDS011;61204;49.980;8.358;2022-11-14T16:07:25;11.02;;;7.90;;
72275;SDS011;61204;49.980;8.358;2022-11-14T16:09:52;12.98;;;8.80;;
72275;SDS011;61204;49.980;8.358;2022-11-14T16:12:19;12.35;;;8.93;;
72275;SDS011;61204;49.980;8.358;2022-11-14T16:14:45;10.98;;;8.60;;
72275;SDS011;61204;49.980;8.358;2022-11-14T16:17:11;12.77;;;8.02;;
72275;SDS011;61204;49.980;8.358;2022-11-14T16:19:40;14.05;;;9.15;;
72275;SDS011;61204;49.980;8.358;2022-11-14T16:22:10;10.57;;;8.00;;
72275;SDS011;61204;49.980;8.358;2022-11-14T16:24:41;10.15;;;8.05;;
72275;SDS011;61204;49.980;8.358;2022-11-14T16:27:07;12.35;;;8.27;;
72275;SDS011;61204;49.980;8.358;2022-11-14T16:29:33;10.60;;;8.20;;
72275;SDS011;61204;49.980;8.358;2022-11-14T16:31:59;11.30;;;8.15;;
72275;SDS011;61204;49.980;8.358;2022-11-14T16:34:25;11.55;;;8.52;;
72275;SDS011;61204;49.980;8.358;2022-11-14T16:36:58;18.00;;;8.77;;
72275;SDS011;61204;49.980;8.358;2022-11-14T16:39:27;11.95;;;8.00;;
72275;SDS011;61204;49.980;8.358;2022-11-14T16:42:00;10.70;;;7.88;;
72275;SDS011;61204;49.980;8.358;2022-11-14T16:44:26;10.70;;;8.35;;
72275;SDS011;61204;49.980;8.358;2022-11-14T16:46:52;11.60;;;7.93;;
72275;SDS011;61204;49.980;8.358;2022-11-14T16:49:18;11.68;;;9.13;;
72275;SDS011;61204;49.980;8.358;2022-11-14T16:51:45;10.75;;;7.70;;
72275;SDS011;61204;49.980;8.358;2022-11-14T16:54:14;13.80;;;8.52;;
72275;SDS011;61204;49.980;8.358;2022-11-14T16:56:44;11.10;;;8.85;;
72275;SDS011;61204;49.980;8.358;2022-11-14T16:59:11;9.32;;;7.50;;
72275;SDS011;61204;49.980;8.358;2022-11-14T17:01:37;12.65;;;8.65;;
72275;SDS011;61204;49.980;8.358;2022-11-14T17:04:03;12.20;;;8.18;;
72275;SDS011;61204;49.980;8.358;2022-11-14T17:06:30;13.15;;;9.23;;